sensor_id;sensor_type;location;lat;lon;timestamp;P1;durP1;ratioP1;P2;durP2;ratioP2
15067;SDS011;7633;60.024;18.770;2023-08-07T00:00:29;11.77;;;10.75;;
15067;SDS011;7633;60.024;18.770;2023-08-07T00:02:55;11.30;;;10.20;;
15067;SDS011;7633;60.024;18.770;2023-08-07T00:05:20;11.27;;;10.15;;
15067;SDS011;7633;60.024;18.770;2023-08-07T00:07:45;11.15;;;10.15;;
15067;SDS011;7633;60.024;18.770;2023-08-07T00:10:11;10.98;;;9.88;;
15067;SDS011;7633;60.024;18.770;2023-08-07T00:12:36;9.73;;;9.00;;
15067;SDS011;7633;60.024;18.770;2023-08-07T00:15:02;11.18;;;10.27;;
15067;SDS011;7633;60.024;18.770;2023-08-07T00:17:27;11.00;;;10.00;;
15067;SDS011;7633;60.024;18.770;2023-08-07T00:19:53;12.00;;;10.98;;
15067;SDS011;7633;60.024;18.770;2023-08-07T00:22:18;11.43;;;10.15;;
15067;SDS011;7633;60.024;18.770;2023-08-07T00:24:43;14.43;;;10.68;;
15067;SDS011;7633;60.024;18.770;2023-08-07T00:27:09;15.02;;;11.32;;
15067;SDS011;7633;60.024;18.770;2023-08-07T00:29:40;12.48;;;10.90;;
15067;SDS011;7633;60.024;18.770;2023-08-07T00:32:05;12.05;;;10.82;;
15067;SDS011;7633;60.024;18.770;2023-08-07T00:34:31;11.20;;;10.07;;
15067;SDS011;7633;60.024;18.770;2023-08-07T00:36:57;12.18;;;9.40;;
15067;SDS011;7633;60.024;18.770;2023-08-07T00:39:23;11.18;;;9.80;;
15067;SDS011;7633;60.024;18.770;2023-08-07T00:41:48;10.00;;;9.00;;
15067;SDS011;7633;60.024;18.770;2023-08-07T00:44:14;8.18;;;6.80;;
15067;SDS011;7633;60.024;18.770;2023-08-07T00:46:39;10.57;;;9.55;;
15067;SDS011;7633;60.024;18.770;2023-08-07T00:49:05;11.02;;;10.02;;
15067;SDS011;7633;60.024;18.770;2023-08-07T00:51:31;11.75;;;10.50;;
15067;SDS011;7633;60.024;18.770;2023-08-07T00:53:56;9.80;;;8.90;;
15067;SDS011;7633;60.024;18.770;2023-08-07T00:56:22;9.07;;;8.18;;
15067;SDS011;7633;60.024;18.770;2023-08-07T00:58:47;7.90;;;7.15;;
15067;SDS011;7633;60.024;18.770;2023-08-07T01:01:13;8.30;;;7.13;;
15067;SDS011;7633;60.024;18.770;2023-08-07T01:03:39;10.45;;;7.45;;
15067;SDS011;7633;60.024;18.770;2023-08-07T01:06:05;8.35;;;7.35;;
15067;SDS011;7633;60.024;18.770;2023-08-07T01:08:30;9.95;;;8.95;;
15067;SDS011;7633;60.024;18.770;2023-08-07T01:16:17;10.35;;;9.35;;
15067;SDS011;7633;60.024;18.770;2023-08-07T01:18:43;11.52;;;10.18;;
15067;SDS011;7633;60.024;18.770;2023-08-07T01:21:19;13.40;;;10.55;;
15067;SDS011;7633;60.024;18.770;2023-08-07T01:23:48;10.80;;;9.88;;
15067;SDS011;7633;60.024;18.770;2023-08-07T01:26:14;11.57;;;10.55;;
15067;SDS011;7633;60.024;18.770;2023-08-07T01:28:42;11.73;;;10.52;;
15067;SDS011;7633;60.024;18.770;2023-08-07T01:31:10;11.52;;;10.48;;
15067;SDS011;7633;60.024;18.770;2023-08-07T01:33:59;11.00;;;10.02;;
15067;SDS011;7633;60.024;18.770;2023-08-07T01:36:27;12.40;;;11.30;;
15067;SDS011;7633;60.024;18.770;2023-08-07T01:38:52;12.60;;;11.50;;
15067;SDS011;7633;60.024;18.770;2023-08-07T01:41:19;11.60;;;10.52;;
15067;SDS011;7633;60.024;18.770;2023-08-07T01:43:45;12.90;;;11.70;;
15067;SDS011;7633;60.024;18.770;2023-08-07T01:46:10;12.70;;;11.50;;
15067;SDS011;7633;60.024;18.770;2023-08-07T01:48:36;12.60;;;11.57;;
15067;SDS011;7633;60.024;18.770;2023-08-07T01:51:01;13.32;;;12.02;;
15067;SDS011;7633;60.024;18.770;2023-08-07T01:53:26;13.50;;;12.40;;
15067;SDS011;7633;60.024;18.770;2023-08-07T01:55:52;13.05;;;11.77;;
15067;SDS011;7633;60.024;18.770;2023-08-07T01:58:17;12.30;;;11.30;;
15067;SDS011;7633;60.024;18.770;2023-08-07T02:00:42;13.57;;;12.30;;
15067;SDS011;7633;60.024;18.770;2023-08-07T02:03:08;13.70;;;12.40;;
15067;SDS011;7633;60.024;18.770;2023-08-07T02:05:33;13.27;;;12.02;;
15067;SDS011;7633;60.024;18.770;2023-08-07T02:07:59;14.10;;;12.77;;
15067;SDS011;7633;60.024;18.770;2023-08-07T02:10:24;13.15;;;11.68;;
15067;SDS011;7633;60.024;18.770;2023-08-07T02:12:50;12.85;;;11.85;;
15067;SDS011;7633;60.024;18.770;2023-08-07T02:15:15;14.07;;;12.88;;
15067;SDS011;7633;60.024;18.770;2023-08-07T02:17:41;14.55;;;13.25;;
15067;SDS011;7633;60.024;18.770;2023-08-07T02:20:07;14.40;;;13.20;;
15067;SDS011;7633;60.024;18.770;2023-08-07T02:22:33;15.18;;;13.73;;
15067;SDS011;7633;60.024;18.770;2023-08-07T02:24:58;15.10;;;13.60;;
15067;SDS011;7633;60.024;18.770;2023-08-07T02:27:23;15.38;;;13.98;;
15067;SDS011;7633;60.024;18.770;2023-08-07T02:29:49;14.38;;;13.02;;
15067;SDS011;7633;60.024;18.770;2023-08-07T02:32:16;14.45;;;13.00;;
15067;SDS011;7633;60.024;18.770;2023-08-07T02:34:41;15.13;;;13.48;;
15067;SDS011;7633;60.024;18.770;2023-08-07T02:37:06;17.05;;;15.43;;
15067;SDS011;7633;60.024;18.770;2023-08-07T02:39:32;15.55;;;14.23;;
15067;SDS011;7633;60.024;18.770;2023-08-07T02:41:57;15.32;;;14.02;;
15067;SDS011;7633;60.024;18.770;2023-08-07T02:44:22;15.32;;;13.98;;
15067;SDS011;7633;60.024;18.770;2023-08-07T02:46:48;15.25;;;13.68;;
15067;SDS011;7633;60.024;18.770;2023-08-07T02:49:13;16.13;;;14.63;;
15067;SDS011;7633;60.024;18.770;2023-08-07T02:51:39;15.95;;;14.43;;
15067;SDS011;7633;60.024;18.770;2023-08-07T02:54:04;16.77;;;15.18;;
15067;SDS011;7633;60.024;18.770;2023-08-07T02:56:29;16.95;;;15.35;;
15067;SDS011;7633;60.024;18.770;2023-08-07T02:58:55;16.90;;;15.02;;
15067;SDS011;7633;60.024;18.770;2023-08-07T03:01:23;15.23;;;13.73;;
15067;SDS011;7633;60.024;18.770;2023-08-07T03:03:48;15.80;;;14.32;;
15067;SDS011;7633;60.024;18.770;2023-08-07T03:06:14;16.67;;;14.95;;
15067;SDS011;7633;60.024;18.770;2023-08-07T03:08:39;16.08;;;14.30;;
15067;SDS011;7633;60.024;18.770;2023-08-07T03:11:04;16.67;;;14.98;;
15067;SDS011;7633;60.024;18.770;2023-08-07T03:13:30;14.85;;;13.55;;
15067;SDS011;7633;60.024;18.770;2023-08-07T03:16:04;16.38;;;14.68;;
15067;SDS011;7633;60.024;18.770;2023-08-07T03:18:30;16.27;;;14.57;;
15067;SDS011;7633;60.024;18.770;2023-08-07T03:20:56;15.52;;;14.02;;
15067;SDS011;7633;60.024;18.770;2023-08-07T03:23:25;15.00;;;13.50;;
15067;SDS011;7633;60.024;18.770;2023-08-07T03:26:05;14.90;;;13.50;;
15067;SDS011;7633;60.024;18.770;2023-08-07T03:28:30;14.70;;;13.30;;
15067;SDS011;7633;60.024;18.770;2023-08-07T03:30:56;15.43;;;13.93;;
15067;SDS011;7633;60.024;18.770;2023-08-07T03:33:21;15.60;;;14.07;;
15067;SDS011;7633;60.024;18.770;2023-08-07T03:35:46;14.82;;;13.52;;
15067;SDS011;7633;60.024;18.770;2023-08-07T03:38:12;15.77;;;14.27;;
15067;SDS011;7633;60.024;18.770;2023-08-07T03:40:37;15.43;;;13.82;;
15067;SDS011;7633;60.024;18.770;2023-08-07T03:43:02;15.02;;;13.65;;
15067;SDS011;7633;60.024;18.770;2023-08-07T03:45:28;15.13;;;13.63;;
15067;SDS011;7633;60.024;18.770;2023-08-07T03:47:53;15.48;;;12.85;;
15067;SDS011;7633;60.024;18.770;2023-08-07T03:50:19;14.27;;;12.98;;
15067;SDS011;7633;60.024;18.770;2023-08-07T03:52:44;14.50;;;13.00;;
15067;SDS011;7633;60.024;18.770;2023-08-07T03:55:10;13.50;;;12.10;;
15067;SDS011;7633;60.024;18.770;2023-08-07T03:57:35;14.80;;;13.07;;
15067;SDS011;7633;60.024;18.770;2023-08-07T04:00:00;14.35;;;12.95;;
15067;SDS011;7633;60.024;18.770;2023-08-07T04:02:26;14.10;;;12.60;;
15067;SDS011;7633;60.024;18.770;2023-08-07T04:04:52;13.75;;;12.55;;
15067;SDS011;7633;60.024;18.770;2023-08-07T04:07:18;14.13;;;12.85;;
15067;SDS011;7633;60.024;18.770;2023-08-07T04:09:43;14.50;;;13.20;;
15067;SDS011;7633;60.024;18.770;2023-08-07T04:12:08;14.30;;;12.93;;
15067;SDS011;7633;60.024;18.770;2023-08-07T04:14:34;12.93;;;11.45;;
15067;SDS011;7633;60.024;18.770;2023-08-07T04:16:59;13.15;;;11.80;;
15067;SDS011;7633;60.024;18.770;2023-08-07T04:19:25;14.00;;;12.63;;
15067;SDS011;7633;60.024;18.770;2023-08-07T04:21:51;16.33;;;13.88;;
15067;SDS011;7633;60.024;18.770;2023-08-07T04:24:16;15.45;;;13.75;;
15067;SDS011;7633;60.024;18.770;2023-08-07T04:26:41;14.45;;;13.05;;
15067;SDS011;7633;60.024;18.770;2023-08-07T04:29:07;16.00;;;14.45;;
15067;SDS011;7633;60.024;18.770;2023-08-07T04:31:32;15.02;;;13.48;;
15067;SDS011;7633;60.024;18.770;2023-08-07T04:33:58;15.88;;;14.13;;
15067;SDS011;7633;60.024;18.770;2023-08-07T04:36:23;17.58;;;13.00;;
15067;SDS011;7633;60.024;18.770;2023-08-07T04:38:49;14.80;;;13.27;;
15067;SDS011;7633;60.024;18.770;2023-08-07T04:41:15;14.75;;;12.95;;
15067;SDS011;7633;60.024;18.770;2023-08-07T04:43:40;15.80;;;14.20;;
15067;SDS011;7633;60.024;18.770;2023-08-07T04:46:06;15.20;;;12.63;;
15067;SDS011;7633;60.024;18.770;2023-08-07T04:48:31;14.68;;;12.88;;
15067;SDS011;7633;60.024;18.770;2023-08-07T04:50:58;15.57;;;13.13;;
15067;SDS011;7633;60.024;18.770;2023-08-07T04:53:23;14.40;;;12.32;;
15067;SDS011;7633;60.024;18.770;2023-08-07T04:55:48;14.80;;;13.20;;
15067;SDS011;7633;60.024;18.770;2023-08-07T04:58:14;15.80;;;12.30;;
15067;SDS011;7633;60.024;18.770;2023-08-07T05:00:39;15.02;;;12.70;;
15067;SDS011;7633;60.024;18.770;2023-08-07T05:03:04;13.75;;;12.35;;
15067;SDS011;7633;60.024;18.770;2023-08-07T05:05:30;14.45;;;13.07;;
15067;SDS011;7633;60.024;18.770;2023-08-07T05:07:55;14.15;;;12.38;;
15067;SDS011;7633;60.024;18.770;2023-08-07T05:10:20;13.55;;;12.23;;
15067;SDS011;7633;60.024;18.770;2023-08-07T05:12:46;14.05;;;12.65;;
15067;SDS011;7633;60.024;18.770;2023-08-07T05:15:11;14.23;;;12.73;;
15067;SDS011;7633;60.024;18.770;2023-08-07T05:17:36;13.15;;;12.05;;
15067;SDS011;7633;60.024;18.770;2023-08-07T05:20:02;15.52;;;13.20;;
15067;SDS011;7633;60.024;18.770;2023-08-07T05:22:27;13.10;;;12.00;;
15067;SDS011;7633;60.024;18.770;2023-08-07T05:24:53;14.77;;;13.27;;
15067;SDS011;7633;60.024;18.770;2023-08-07T05:27:18;14.95;;;13.18;;
15067;SDS011;7633;60.024;18.770;2023-08-07T05:29:43;13.88;;;12.60;;
15067;SDS011;7633;60.024;18.770;2023-08-07T05:32:12;13.82;;;12.63;;
15067;SDS011;7633;60.024;18.770;2023-08-07T05:34:38;14.68;;;13.23;;
15067;SDS011;7633;60.024;18.770;2023-08-07T05:37:04;15.35;;;14.05;;
15067;SDS011;7633;60.024;18.770;2023-08-07T05:39:30;15.75;;;14.25;;
15067;SDS011;7633;60.024;18.770;2023-08-07T05:41:55;16.40;;;15.00;;
15067;SDS011;7633;60.024;18.770;2023-08-07T05:44:23;15.57;;;14.13;;
15067;SDS011;7633;60.024;18.770;2023-08-07T05:46:48;15.05;;;13.65;;
15067;SDS011;7633;60.024;18.770;2023-08-07T05:49:13;15.95;;;14.35;;
15067;SDS011;7633;60.024;18.770;2023-08-07T05:51:39;15.45;;;14.05;;
15067;SDS011;7633;60.024;18.770;2023-08-07T05:54:04;16.10;;;14.40;;
15067;SDS011;7633;60.024;18.770;2023-08-07T05:56:29;15.95;;;14.50;;
15067;SDS011;7633;60.024;18.770;2023-08-07T05:58:55;15.15;;;13.77;;
15067;SDS011;7633;60.024;18.770;2023-08-07T06:01:20;15.57;;;14.18;;
15067;SDS011;7633;60.024;18.770;2023-08-07T06:03:45;16.52;;;14.93;;
15067;SDS011;7633;60.024;18.770;2023-08-07T06:06:12;15.48;;;14.05;;
15067;SDS011;7633;60.024;18.770;2023-08-07T06:08:37;15.60;;;14.20;;
15067;SDS011;7633;60.024;18.770;2023-08-07T06:11:03;15.82;;;14.30;;
15067;SDS011;7633;60.024;18.770;2023-08-07T06:13:29;15.13;;;13.70;;
15067;SDS011;7633;60.024;18.770;2023-08-07T06:15:55;14.85;;;13.57;;
15067;SDS011;7633;60.024;18.770;2023-08-07T06:18:20;14.65;;;13.15;;
15067;SDS011;7633;60.024;18.770;2023-08-07T06:20:45;14.27;;;13.07;;
15067;SDS011;7633;60.024;18.770;2023-08-07T06:23:11;15.18;;;13.98;;
15067;SDS011;7633;60.024;18.770;2023-08-07T06:25:37;14.52;;;13.43;;
15067;SDS011;7633;60.024;18.770;2023-08-07T06:28:02;13.95;;;12.65;;
15067;SDS011;7633;60.024;18.770;2023-08-07T06:30:27;14.32;;;13.05;;
15067;SDS011;7633;60.024;18.770;2023-08-07T06:32:54;14.15;;;12.75;;
15067;SDS011;7633;60.024;18.770;2023-08-07T06:35:19;12.55;;;11.48;;
15067;SDS011;7633;60.024;18.770;2023-08-07T06:37:44;14.65;;;13.35;;
15067;SDS011;7633;60.024;18.770;2023-08-07T06:40:10;14.23;;;12.82;;
15067;SDS011;7633;60.024;18.770;2023-08-07T06:42:35;14.60;;;13.20;;
15067;SDS011;7633;60.024;18.770;2023-08-07T06:45:01;13.50;;;12.43;;
15067;SDS011;7633;60.024;18.770;2023-08-07T06:47:26;13.65;;;12.50;;
15067;SDS011;7633;60.024;18.770;2023-08-07T06:49:51;13.98;;;12.77;;
15067;SDS011;7633;60.024;18.770;2023-08-07T06:52:17;13.50;;;12.38;;
15067;SDS011;7633;60.024;18.770;2023-08-07T06:54:42;14.05;;;12.80;;
15067;SDS011;7633;60.024;18.770;2023-08-07T06:57:07;14.02;;;12.70;;
15067;SDS011;7633;60.024;18.770;2023-08-07T06:59:33;14.23;;;12.75;;
15067;SDS011;7633;60.024;18.770;2023-08-07T07:01:58;14.25;;;13.05;;
15067;SDS011;7633;60.024;18.770;2023-08-07T07:04:23;13.80;;;12.60;;
15067;SDS011;7633;60.024;18.770;2023-08-07T07:06:49;13.65;;;12.45;;
15067;SDS011;7633;60.024;18.770;2023-08-07T07:09:14;13.85;;;12.75;;
15067;SDS011;7633;60.024;18.770;2023-08-07T07:11:41;14.15;;;12.90;;
15067;SDS011;7633;60.024;18.770;2023-08-07T07:14:07;13.82;;;12.73;;
15067;SDS011;7633;60.024;18.770;2023-08-07T07:16:33;14.23;;;12.93;;
15067;SDS011;7633;60.024;18.770;2023-08-07T07:18:59;14.27;;;13.07;;
15067;SDS011;7633;60.024;18.770;2023-08-07T07:21:25;12.68;;;11.57;;
15067;SDS011;7633;60.024;18.770;2023-08-07T07:23:51;13.13;;;11.95;;
15067;SDS011;7633;60.024;18.770;2023-08-07T07:26:16;13.20;;;12.10;;
15067;SDS011;7633;60.024;18.770;2023-08-07T07:28:42;14.20;;;13.00;;
15067;SDS011;7633;60.024;18.770;2023-08-07T07:31:07;14.60;;;13.40;;
15067;SDS011;7633;60.024;18.770;2023-08-07T07:33:36;14.85;;;13.52;;
15067;SDS011;7633;60.024;18.770;2023-08-07T07:36:02;13.90;;;12.73;;
15067;SDS011;7633;60.024;18.770;2023-08-07T07:38:27;14.65;;;13.40;;
15067;SDS011;7633;60.024;18.770;2023-08-07T07:40:53;13.88;;;12.63;;
15067;SDS011;7633;60.024;18.770;2023-08-07T07:43:24;12.95;;;11.85;;
15067;SDS011;7633;60.024;18.770;2023-08-07T07:45:50;14.00;;;12.70;;
15067;SDS011;7633;60.024;18.770;2023-08-07T07:48:15;13.93;;;12.73;;
15067;SDS011;7633;60.024;18.770;2023-08-07T07:50:41;13.93;;;12.73;;
15067;SDS011;7633;60.024;18.770;2023-08-07T07:53:06;13.75;;;12.55;;
15067;SDS011;7633;60.024;18.770;2023-08-07T07:55:32;12.27;;;11.18;;
15067;SDS011;7633;60.024;18.770;2023-08-07T07:57:59;12.55;;;11.45;;
15067;SDS011;7633;60.024;18.770;2023-08-07T08:00:25;13.07;;;11.93;;
15067;SDS011;7633;60.024;18.770;2023-08-07T08:02:52;14.43;;;13.13;;
15067;SDS011;7633;60.024;18.770;2023-08-07T08:05:18;14.98;;;13.68;;
15067;SDS011;7633;60.024;18.770;2023-08-07T08:07:43;13.48;;;12.18;;
15067;SDS011;7633;60.024;18.770;2023-08-07T08:10:09;14.55;;;13.25;;
15067;SDS011;7633;60.024;18.770;2023-08-07T08:12:35;14.13;;;12.68;;
15067;SDS011;7633;60.024;18.770;2023-08-07T08:15:01;14.90;;;13.52;;
15067;SDS011;7633;60.024;18.770;2023-08-07T08:17:26;15.05;;;13.82;;
15067;SDS011;7633;60.024;18.770;2023-08-07T08:19:52;13.52;;;12.32;;
15067;SDS011;7633;60.024;18.770;2023-08-07T08:22:19;13.52;;;12.25;;
15067;SDS011;7633;60.024;18.770;2023-08-07T08:24:45;14.15;;;12.68;;
15067;SDS011;7633;60.024;18.770;2023-08-07T08:27:10;14.27;;;12.98;;
15067;SDS011;7633;60.024;18.770;2023-08-07T08:29:35;13.25;;;11.98;;
15067;SDS011;7633;60.024;18.770;2023-08-07T08:32:01;14.10;;;12.88;;
15067;SDS011;7633;60.024;18.770;2023-08-07T08:34:28;13.18;;;12.15;;
15067;SDS011;7633;60.024;18.770;2023-08-07T08:36:53;13.68;;;12.38;;
15067;SDS011;7633;60.024;18.770;2023-08-07T08:39:18;13.60;;;12.15;;
15067;SDS011;7633;60.024;18.770;2023-08-07T08:41:47;14.45;;;13.05;;
15067;SDS011;7633;60.024;18.770;2023-08-07T08:44:13;12.80;;;11.70;;
15067;SDS011;7633;60.024;18.770;2023-08-07T08:46:39;13.38;;;12.27;;
15067;SDS011;7633;60.024;18.770;2023-08-07T08:49:07;13.18;;;11.57;;
15067;SDS011;7633;60.024;18.770;2023-08-07T08:51:33;13.80;;;12.70;;
15067;SDS011;7633;60.024;18.770;2023-08-07T08:53:59;13.13;;;11.82;;
15067;SDS011;7633;60.024;18.770;2023-08-07T08:56:27;12.95;;;11.70;;
15067;SDS011;7633;60.024;18.770;2023-08-07T08:58:52;12.95;;;11.80;;
15067;SDS011;7633;60.024;18.770;2023-08-07T09:01:18;14.63;;;13.00;;
15067;SDS011;7633;60.024;18.770;2023-08-07T09:03:46;13.20;;;12.00;;
15067;SDS011;7633;60.024;18.770;2023-08-07T09:06:13;13.95;;;12.60;;
15067;SDS011;7633;60.024;18.770;2023-08-07T09:08:39;12.75;;;11.55;;
15067;SDS011;7633;60.024;18.770;2023-08-07T09:11:05;12.68;;;11.52;;
15067;SDS011;7633;60.024;18.770;2023-08-07T09:13:32;13.73;;;12.38;;
15067;SDS011;7633;60.024;18.770;2023-08-07T09:16:02;13.38;;;12.32;;
15067;SDS011;7633;60.024;18.770;2023-08-07T09:18:35;12.88;;;11.82;;
15067;SDS011;7633;60.024;18.770;2023-08-07T09:21:01;12.88;;;11.75;;
15067;SDS011;7633;60.024;18.770;2023-08-07T09:23:26;12.90;;;11.80;;
15067;SDS011;7633;60.024;18.770;2023-08-07T09:26:01;13.07;;;11.98;;
15067;SDS011;7633;60.024;18.770;2023-08-07T09:28:28;14.10;;;12.70;;
15067;SDS011;7633;60.024;18.770;2023-08-07T09:30:55;13.25;;;12.07;;
15067;SDS011;7633;60.024;18.770;2023-08-07T09:33:28;12.43;;;11.38;;
15067;SDS011;7633;60.024;18.770;2023-08-07T09:36:01;13.38;;;12.13;;
15067;SDS011;7633;60.024;18.770;2023-08-07T09:38:32;13.65;;;12.45;;
15067;SDS011;7633;60.024;18.770;2023-08-07T09:41:03;13.13;;;11.77;;
15067;SDS011;7633;60.024;18.770;2023-08-07T09:43:33;13.32;;;11.98;;
15067;SDS011;7633;60.024;18.770;2023-08-07T09:46:05;12.77;;;11.75;;
15067;SDS011;7633;60.024;18.770;2023-08-07T09:48:32;12.45;;;11.45;;
15067;SDS011;7633;60.024;18.770;2023-08-07T09:51:04;10.02;;;9.02;;
15067;SDS011;7633;60.024;18.770;2023-08-07T09:53:30;12.40;;;11.25;;
15067;SDS011;7633;60.024;18.770;2023-08-07T09:55:58;13.73;;;12.48;;
15067;SDS011;7633;60.024;18.770;2023-08-07T09:58:24;13.25;;;12.07;;
15067;SDS011;7633;60.024;18.770;2023-08-07T10:00:49;13.18;;;11.90;;
15067;SDS011;7633;60.024;18.770;2023-08-07T10:03:16;13.00;;;11.90;;
15067;SDS011;7633;60.024;18.770;2023-08-07T10:05:47;12.55;;;11.45;;
15067;SDS011;7633;60.024;18.770;2023-08-07T10:08:19;13.10;;;12.07;;
15067;SDS011;7633;60.024;18.770;2023-08-07T10:10:46;11.68;;;10.65;;
15067;SDS011;7633;60.024;18.770;2023-08-07T10:13:13;12.18;;;11.10;;
15067;SDS011;7633;60.024;18.770;2023-08-07T10:15:43;13.55;;;12.23;;
15067;SDS011;7633;60.024;18.770;2023-08-07T10:18:10;12.90;;;11.57;;
15067;SDS011;7633;60.024;18.770;2023-08-07T10:20:37;13.77;;;12.48;;
15067;SDS011;7633;60.024;18.770;2023-08-07T10:23:07;12.75;;;11.68;;
15067;SDS011;7633;60.024;18.770;2023-08-07T10:25:33;13.18;;;11.85;;
15067;SDS011;7633;60.024;18.770;2023-08-07T10:28:01;13.90;;;12.65;;
15067;SDS011;7633;60.024;18.770;2023-08-07T10:30:29;13.32;;;12.02;;
15067;SDS011;7633;60.024;18.770;2023-08-07T10:32:56;12.60;;;11.60;;
15067;SDS011;7633;60.024;18.770;2023-08-07T10:35:25;12.00;;;10.88;;
15067;SDS011;7633;60.024;18.770;2023-08-07T10:37:51;13.25;;;12.10;;
15067;SDS011;7633;60.024;18.770;2023-08-07T10:40:19;12.70;;;11.50;;
15067;SDS011;7633;60.024;18.770;2023-08-07T10:42:59;13.20;;;12.00;;
15067;SDS011;7633;60.024;18.770;2023-08-07T10:45:28;13.27;;;11.98;;
15067;SDS011;7633;60.024;18.770;2023-08-07T10:48:03;12.98;;;11.80;;
15067;SDS011;7633;60.024;18.770;2023-08-07T10:50:34;12.68;;;11.48;;
15067;SDS011;7633;60.024;18.770;2023-08-07T10:53:03;12.55;;;11.30;;
15067;SDS011;7633;60.024;18.770;2023-08-07T10:55:48;12.30;;;11.20;;
15067;SDS011;7633;60.024;18.770;2023-08-07T10:58:26;11.60;;;10.52;;
15067;SDS011;7633;60.024;18.770;2023-08-07T11:03:40;13.30;;;12.02;;
15067;SDS011;7633;60.024;18.770;2023-08-07T11:06:06;12.38;;;11.35;;
15067;SDS011;7633;60.024;18.770;2023-08-07T11:08:32;12.95;;;11.63;;
15067;SDS011;7633;60.024;18.770;2023-08-07T11:11:03;13.30;;;12.00;;
15067;SDS011;7633;60.024;18.770;2023-08-07T11:13:29;12.60;;;11.60;;
15067;SDS011;7633;60.024;18.770;2023-08-07T11:15:55;12.30;;;11.30;;
15067;SDS011;7633;60.024;18.770;2023-08-07T11:18:22;12.27;;;11.27;;
15067;SDS011;7633;60.024;18.770;2023-08-07T11:20:48;12.55;;;11.40;;
15067;SDS011;7633;60.024;18.770;2023-08-07T11:23:13;11.50;;;10.50;;
15067;SDS011;7633;60.024;18.770;2023-08-07T11:25:39;11.63;;;10.60;;
15067;SDS011;7633;60.024;18.770;2023-08-07T11:28:04;11.57;;;10.63;;
15067;SDS011;7633;60.024;18.770;2023-08-07T11:30:30;11.43;;;10.40;;
15067;SDS011;7633;60.024;18.770;2023-08-07T11:32:56;10.73;;;9.93;;
15067;SDS011;7633;60.024;18.770;2023-08-07T11:35:22;12.30;;;11.30;;
15067;SDS011;7633;60.024;18.770;2023-08-07T11:37:49;11.38;;;10.57;;
15067;SDS011;7633;60.024;18.770;2023-08-07T11:40:17;11.15;;;10.20;;
15067;SDS011;7633;60.024;18.770;2023-08-07T11:42:45;12.60;;;11.45;;
15067;SDS011;7633;60.024;18.770;2023-08-07T11:45:10;12.10;;;11.20;;
15067;SDS011;7633;60.024;18.770;2023-08-07T11:47:35;12.00;;;10.85;;
15067;SDS011;7633;60.024;18.770;2023-08-07T11:50:01;12.48;;;11.18;;
15067;SDS011;7633;60.024;18.770;2023-08-07T11:52:27;12.27;;;11.27;;
15067;SDS011;7633;60.024;18.770;2023-08-07T11:54:52;11.80;;;10.65;;
15067;SDS011;7633;60.024;18.770;2023-08-07T11:57:19;11.80;;;10.85;;
15067;SDS011;7633;60.024;18.770;2023-08-07T11:59:51;12.27;;;11.27;;
15067;SDS011;7633;60.024;18.770;2023-08-07T12:02:17;12.73;;;11.63;;
15067;SDS011;7633;60.024;18.770;2023-08-07T12:04:47;12.07;;;11.05;;
15067;SDS011;7633;60.024;18.770;2023-08-07T12:07:16;12.13;;;11.13;;
15067;SDS011;7633;60.024;18.770;2023-08-07T12:09:47;11.35;;;10.45;;
15067;SDS011;7633;60.024;18.770;2023-08-07T12:12:13;12.13;;;11.05;;
15067;SDS011;7633;60.024;18.770;2023-08-07T12:14:38;12.52;;;11.43;;
15067;SDS011;7633;60.024;18.770;2023-08-07T12:17:04;12.38;;;11.27;;
15067;SDS011;7633;60.024;18.770;2023-08-07T12:19:36;11.93;;;10.93;;
15067;SDS011;7633;60.024;18.770;2023-08-07T12:22:05;12.52;;;11.40;;
15067;SDS011;7633;60.024;18.770;2023-08-07T12:24:31;12.98;;;11.90;;
15067;SDS011;7633;60.024;18.770;2023-08-07T12:26:56;13.40;;;12.30;;
15067;SDS011;7633;60.024;18.770;2023-08-07T12:29:21;13.20;;;11.98;;
15067;SDS011;7633;60.024;18.770;2023-08-07T12:31:52;13.90;;;12.40;;
15067;SDS011;7633;60.024;18.770;2023-08-07T12:34:23;12.38;;;11.25;;
15067;SDS011;7633;60.024;18.770;2023-08-07T12:36:49;12.80;;;11.77;;
15067;SDS011;7633;60.024;18.770;2023-08-07T12:39:14;14.23;;;12.95;;
15067;SDS011;7633;60.024;18.770;2023-08-07T12:41:40;13.27;;;12.18;;
15067;SDS011;7633;60.024;18.770;2023-08-07T12:44:06;13.27;;;12.07;;
15067;SDS011;7633;60.024;18.770;2023-08-07T12:46:33;14.43;;;13.32;;
15067;SDS011;7633;60.024;18.770;2023-08-07T12:48:58;13.32;;;12.13;;
15067;SDS011;7633;60.024;18.770;2023-08-07T12:51:23;14.27;;;12.98;;
15067;SDS011;7633;60.024;18.770;2023-08-07T12:53:49;15.18;;;12.40;;
15067;SDS011;7633;60.024;18.770;2023-08-07T12:56:16;13.38;;;12.27;;
15067;SDS011;7633;60.024;18.770;2023-08-07T12:58:41;13.15;;;12.05;;
15067;SDS011;7633;60.024;18.770;2023-08-07T13:01:06;13.77;;;12.65;;
15067;SDS011;7633;60.024;18.770;2023-08-07T13:03:32;13.13;;;12.05;;
15067;SDS011;7633;60.024;18.770;2023-08-07T13:05:57;13.82;;;12.63;;
15067;SDS011;7633;60.024;18.770;2023-08-07T13:08:22;14.30;;;13.02;;
15067;SDS011;7633;60.024;18.770;2023-08-07T13:10:48;13.02;;;11.93;;
15067;SDS011;7633;60.024;18.770;2023-08-07T13:13:13;13.77;;;12.40;;
15067;SDS011;7633;60.024;18.770;2023-08-07T13:15:38;14.45;;;13.00;;
15067;SDS011;7633;60.024;18.770;2023-08-07T13:18:04;13.38;;;12.32;;
15067;SDS011;7633;60.024;18.770;2023-08-07T13:20:29;14.40;;;12.88;;
15067;SDS011;7633;60.024;18.770;2023-08-07T13:22:59;12.88;;;11.57;;
15067;SDS011;7633;60.024;18.770;2023-08-07T13:25:24;14.05;;;12.75;;
15067;SDS011;7633;60.024;18.770;2023-08-07T13:27:50;14.30;;;12.95;;
15067;SDS011;7633;60.024;18.770;2023-08-07T13:30:15;14.50;;;13.20;;
15067;SDS011;7633;60.024;18.770;2023-08-07T13:32:41;15.43;;;14.07;;
15067;SDS011;7633;60.024;18.770;2023-08-07T13:35:06;15.07;;;13.75;;
15067;SDS011;7633;60.024;18.770;2023-08-07T13:37:32;14.75;;;13.55;;
15067;SDS011;7633;60.024;18.770;2023-08-07T13:39:58;16.40;;;15.10;;
15067;SDS011;7633;60.024;18.770;2023-08-07T13:42:24;15.63;;;14.18;;
15067;SDS011;7633;60.024;18.770;2023-08-07T13:44:50;15.40;;;13.95;;
15067;SDS011;7633;60.024;18.770;2023-08-07T13:47:15;15.18;;;13.88;;
15067;SDS011;7633;60.024;18.770;2023-08-07T13:49:43;15.07;;;13.65;;
15067;SDS011;7633;60.024;18.770;2023-08-07T13:52:08;15.23;;;14.10;;
15067;SDS011;7633;60.024;18.770;2023-08-07T13:54:33;15.43;;;14.02;;
15067;SDS011;7633;60.024;18.770;2023-08-07T13:56:59;14.40;;;13.20;;
15067;SDS011;7633;60.024;18.770;2023-08-07T13:59:24;15.13;;;13.93;;
15067;SDS011;7633;60.024;18.770;2023-08-07T14:01:49;14.77;;;13.40;;
15067;SDS011;7633;60.024;18.770;2023-08-07T14:04:15;15.65;;;14.05;;
15067;SDS011;7633;60.024;18.770;2023-08-07T14:06:41;14.70;;;13.45;;
15067;SDS011;7633;60.024;18.770;2023-08-07T14:09:08;15.68;;;14.38;;
15067;SDS011;7633;60.024;18.770;2023-08-07T14:11:34;15.90;;;14.40;;
15067;SDS011;7633;60.024;18.770;2023-08-07T14:14:00;15.57;;;14.38;;
15067;SDS011;7633;60.024;18.770;2023-08-07T14:16:25;15.23;;;13.95;;
15067;SDS011;7633;60.024;18.770;2023-08-07T14:18:50;15.50;;;14.10;;
15067;SDS011;7633;60.024;18.770;2023-08-07T14:21:16;16.35;;;14.85;;
15067;SDS011;7633;60.024;18.770;2023-08-07T14:23:41;15.43;;;14.05;;
15067;SDS011;7633;60.024;18.770;2023-08-07T14:26:07;15.73;;;14.32;;